Time;durP1;ratioP1;P1;durP2;ratioP2;P2;SDS_P1;SDS_P2;PMS_P1;PMS_P2;Temp;Humidity;BMP_temperature;BMP_pressure;BME280_temperature;BME280_humidity;BME280_pressure;Samples;Min_cycle;Max_cycle;Signal;HPM_P1;HPM_P2
2023/09/01 00:02:02;;;;;;;11.93;7.07;;;;;;;12.48;100.00;101156.63;5063470;28;20071;-76
2023/09/01 00:04:28;;;;;;;11.88;6.60;;;;;;;12.48;100.00;101152.25;5062818;28;20495;-76
2023/09/01 00:06:54;;;;;;;10.80;7.03;;;;;;;12.49;100.00;101153.97;5068858;28;20035;-76
2023/09/01 00:09:19;;;;;;;13.32;6.97;;;;;;;12.48;100.00;101152.25;5063528;28;20017;-76
2023/09/01 00:11:44;;;;;;;16.92;6.97;;;;;;;12.50;100.00;101153.06;5071212;28;20384;-76
2023/09/01 00:14:10;;;;;;;11.93;6.90;;;;;;;12.54;100.00;101146.00;5063996;28;20079;-76
2023/09/01 00:16:35;;;;;;;13.65;6.95;;;;;;;12.59;100.00;101138.91;5071312;28;20112;-76
2023/09/01 00:19:00;;;;;;;11.52;7.15;;;;;;;12.53;100.00;101134.69;5059893;28;20078;-76
2023/09/01 00:21:26;;;;;;;15.23;6.75;;;;;;;12.55;100.00;101140.72;5063940;28;20079;-76
2023/09/01 00:23:51;;;;;;;11.32;6.90;;;;;;;12.50;100.00;101133.91;5069108;28;20013;-76
2023/09/01 00:26:17;;;;;;;13.07;7.18;;;;;;;12.52;100.00;101145.16;5055513;28;20021;-76
2023/09/01 00:28:43;;;;;;;15.50;6.82;;;;;;;12.49;100.00;101127.81;5067652;28;20475;-76
2023/09/01 00:31:08;;;;;;;12.27;6.57;;;;;;;12.42;100.00;101131.47;5063761;28;20078;-76
2023/09/01 00:33:33;;;;;;;12.30;7.10;;;;;;;12.46;100.00;101137.47;5066082;28;20035;-76
2023/09/01 00:36:00;;;;;;;12.48;6.55;;;;;;;12.46;100.00;101137.47;5066703;28;20024;-76
2023/09/01 00:38:26;;;;;;;11.90;7.00;;;;;;;12.43;100.00;101129.75;5063325;28;20074;-76
2023/09/01 00:40:52;;;;;;;15.23;6.30;;;;;;;12.39;100.00;101132.44;5065528;28;20021;-76
2023/09/01 00:43:18;;;;;;;12.88;6.60;;;;;;;12.36;100.00;101118.56;5064035;28;20104;-76
2023/09/01 00:45:43;;;;;;;15.18;7.70;;;;;;;12.32;100.00;101125.63;5065636;28;20524;-76
2023/09/01 00:48:11;;;;;;;12.65;6.82;;;;;;;12.35;100.00;101122.94;5064747;28;20419;-76
2023/09/01 00:50:38;;;;;;;14.50;7.13;;;;;;;12.34;100.00;101118.63;5053121;28;20543;-76
2023/09/01 00:53:06;;;;;;;13.93;7.00;;;;;;;12.32;100.00;101117.78;5065760;28;20024;-76
2023/09/01 00:55:35;;;;;;;15.52;6.45;;;;;;;12.34;100.00;101126.47;5063535;28;20032;-76
2023/09/01 00:58:01;;;;;;;11.73;6.30;;;;;;;12.33;100.00;101124.75;5066215;28;20052;-76
2023/09/01 01:00:27;;;;;;;14.35;7.10;;;;;;;12.34;100.00;101129.06;5063930;28;20534;-76
2023/09/01 01:02:53;;;;;;;12.00;6.75;;;;;;;12.33;100.00;101110.84;5066302;28;20020;-76
2023/09/01 01:05:26;;;;;;;11.63;6.40;;;;;;;12.35;100.00;101122.09;5066272;28;20396;-76
2023/09/01 01:08:05;;;;;;;9.80;6.80;;;;;;;12.37;100.00;101122.91;5064813;28;20016;-76
2023/09/01 01:10:57;;;;;;;12.68;7.10;;;;;;;12.39;100.00;101135.06;5050273;28;20056;-76
2023/09/01 01:13:29;;;;;;;14.00;6.75;;;;;;;12.38;100.00;101125.47;5050764;28;20120;-76
2023/09/01 01:15:55;;;;;;;14.63;7.68;;;;;;;12.41;100.00;101137.63;5062531;28;20068;-76
2023/09/01 01:18:23;;;;;;;13.43;6.80;;;;;;;12.39;100.00;101140.28;5063708;28;20044;-76
2023/09/01 01:21:05;;;;;;;13.50;6.38;;;;;;;12.38;100.00;101135.06;5062761;28;20017;-76
2023/09/01 01:23:31;;;;;;;13.63;6.07;;;;;;;12.35;100.00;101127.31;5065853;28;20033;-76
2023/09/01 01:25:57;;;;;;;13.98;7.38;;;;;;;12.32;100.00;101115.19;5064063;28;20131;-76
2023/09/01 01:28:22;;;;;;;11.95;6.43;;;;;;;12.36;100.00;101121.19;5065303;28;20126;-76
2023/09/01 01:30:49;;;;;;;13.90;7.10;;;;;;;12.35;100.00;101120.31;5064880;28;20032;-76
2023/09/01 01:33:27;;;;;;;12.65;6.80;;;;;;;12.39;100.00;101118.47;5065255;28;20051;-76
2023/09/01 01:36:18;;;;;;;12.10;7.63;;;;;;;12.36;100.00;101123.78;5057745;28;20060;-76
2023/09/01 01:38:49;;;;;;;13.43;6.55;;;;;;;12.34;100.00;101126.47;5058230;28;20507;-76
2023/09/01 01:41:20;;;;;;;10.30;6.78;;;;;;;12.39;100.00;101127.22;5063004;28;20033;-76
2023/09/01 01:43:50;;;;;;;14.10;7.40;;;;;;;12.41;100.00;101130.63;5064307;28;20043;-76
2023/09/01 01:46:16;;;;;;;11.25;6.43;;;;;;;12.44;100.00;101134.06;5065169;28;20040;-76
2023/09/01 01:48:42;;;;;;;12.52;6.90;;;;;;;12.42;100.00;101139.31;5064008;28;20071;-76
2023/09/01 01:51:07;;;;;;;9.95;6.88;;;;;;;12.41;100.00;101130.63;5065889;28;20076;-76
2023/09/01 01:53:35;;;;;;;13.18;7.85;;;;;;;12.47;100.00;101140.06;5064108;28;20049;-76
2023/09/01 01:56:02;;;;;;;11.98;7.55;;;;;;;12.54;100.00;101144.22;5064743;28;20104;-76
2023/09/01 01:58:27;;;;;;;12.90;7.18;;;;;;;12.56;100.00;101137.22;5064400;28;20021;-76
2023/09/01 02:00:53;;;;;;;14.15;7.80;;;;;;;12.58;100.00;101131.94;5065127;28;20047;-76
2023/09/01 02:03:18;;;;;;;15.13;7.43;;;;;;;12.63;100.00;101133.53;5062768;28;20532;-76
2023/09/01 02:05:43;;;;;;;14.80;7.05;;;;;;;12.65;100.00;101130.84;5063423;28;20036;-76
2023/09/01 02:08:09;;;;;;;16.00;7.38;;;;;;;12.68;100.00;101124.69;5065663;28;20043;-76
2023/09/01 02:10:34;;;;;;;13.50;6.95;;;;;;;12.67;100.00;101125.59;5061346;28;20071;-76
2023/09/01 02:13:01;;;;;;;10.98;6.95;;;;;;;12.65;100.00;101113.44;5064760;28;20028;-76
2023/09/01 02:15:26;;;;;;;10.10;7.13;;;;;;;12.68;100.00;101116.84;5064103;28;20025;-76
2023/09/01 02:17:51;;;;;;;11.27;7.60;;;;;;;12.65;100.00;101107.31;5062303;28;20021;-76
2023/09/01 02:20:17;;;;;;;14.88;7.22;;;;;;;12.69;100.00;101111.59;5067019;28;20496;-75
2023/09/01 02:22:44;;;;;;;11.18;7.10;;;;;;;12.73;100.00;101110.59;5059698;28;20025;-76
2023/09/01 02:25:09;;;;;;;10.68;7.78;;;;;;;12.74;100.00;101112.28;5063675;28;20031;-76
2023/09/01 02:27:38;;;;;;;13.57;7.60;;;;;;;12.75;100.00;101119.25;5062610;28;20112;-76
2023/09/01 02:30:04;;;;;;;13.18;7.40;;;;;;;12.76;100.00;101120.97;5068913;28;20020;-76
2023/09/01 02:32:30;;;;;;;15.88;7.80;;;;;;;12.78;100.00;101124.38;5059821;28;20675;-76
2023/09/01 02:34:55;;;;;;;10.93;7.50;;;;;;;12.79;100.00;101120.88;5068643;28;20025;-76
2023/09/01 02:37:20;;;;;;;15.25;7.68;;;;;;;12.76;100.00;101118.34;5061294;28;20113;-76
2023/09/01 02:39:46;;;;;;;15.38;7.53;;;;;;;12.73;100.00;101118.44;5065443;28;20032;-76
2023/09/01 02:42:11;;;;;;;11.27;6.63;;;;;;;12.74;100.00;101111.44;5063927;28;20026;-76
2023/09/01 02:44:36;;;;;;;12.73;7.68;;;;;;;12.74;100.00;101100.97;5064295;28;20085;-76
2023/09/01 02:47:03;;;;;;;18.23;7.78;;;;;;;12.71;100.00;101095.84;5063302;28;20032;-76
2023/09/01 02:49:28;;;;;;;17.10;7.38;;;;;;;12.69;100.00;101101.13;5063987;28;20037;-76
2023/09/01 02:51:54;;;;;;;13.85;7.70;;;;;;;12.68;100.00;101103.75;5063221;28;20035;-76
2023/09/01 02:54:19;;;;;;;19.00;7.57;;;;;;;12.67;100.00;101102.91;5063816;28;20043;-76
2023/09/01 02:56:44;;;;;;;16.23;8.25;;;;;;;12.67;100.00;101092.44;5064028;28;20021;-76
2023/09/01 02:59:10;;;;;;;16.23;8.55;;;;;;;12.65;100.00;101097.75;5058322;28;20332;-76
2023/09/01 03:01:35;;;;;;;16.95;8.50;;;;;;;12.72;100.00;101114.13;5055965;28;20029;-76
2023/09/01 03:04:00;;;;;;;13.07;8.32;;;;;;;12.73;100.00;101104.50;5064152;28;20021;-75
2023/09/01 03:06:26;;;;;;;14.50;7.80;;;;;;;12.70;100.00;101104.59;5060369;28;20383;-75
2023/09/01 03:08:51;;;;;;;10.65;7.22;;;;;;;12.68;100.00;101111.59;5063423;28;20017;-76
2023/09/01 03:11:16;;;;;;;12.63;7.45;;;;;;;12.69;100.00;101114.19;5064868;28;20028;-76
2023/09/01 03:13:42;;;;;;;15.93;7.57;;;;;;;12.71;100.00;101120.22;5058145;28;20024;-76
2023/09/01 03:16:07;;;;;;;13.55;7.88;;;;;;;12.76;100.00;101112.28;5064320;28;20402;-76
2023/09/01 03:18:32;;;;;;;13.40;7.75;;;;;;;12.78;100.00;101103.44;5062864;28;20040;-76
2023/09/01 03:21:11;;;;;;;12.32;7.50;;;;;;;12.80;100.00;101085.13;5061607;28;20013;-75
2023/09/01 03:23:37;;;;;;;14.30;7.20;;;;;;;12.82;100.00;101086.78;5063290;28;20021;-76
2023/09/01 03:26:05;;;;;;;13.35;7.25;;;;;;;12.86;100.00;101096.25;5062827;28;20137;-76
2023/09/01 03:28:31;;;;;;;12.35;7.30;;;;;;;12.89;100.00;101093.56;5060022;28;20025;-76
2023/09/01 03:30:56;;;;;;;14.63;7.75;;;;;;;12.88;100.00;101099.69;5058620;28;20075;-76
2023/09/01 03:33:21;;;;;;;13.95;7.80;;;;;;;12.91;100.00;101097.88;5054869;28;20063;-76
2023/09/01 03:35:47;;;;;;;10.57;7.18;;;;;;;12.95;100.00;101096.88;5059252;28;20108;-76
2023/09/01 03:38:12;;;;;;;12.27;7.72;;;;;;;12.92;100.00;101091.75;5062354;28;20043;-76
2023/09/01 03:40:38;;;;;;;13.57;7.80;;;;;;;12.98;100.00;101095.06;5061641;28;20464;-76
2023/09/01 03:43:04;;;;;;;19.40;8.45;;;;;;;12.99;100.00;101093.28;5059060;28;20025;-76
2023/09/01 03:45:30;;;;;;;12.45;7.90;;;;;;;12.97;100.00;101084.63;5065405;28;20408;-76
2023/09/01 03:47:55;;;;;;;12.40;7.40;;;;;;;13.01;100.00;101079.22;5056804;28;20033;-76
2023/09/01 03:50:20;;;;;;;13.30;7.60;;;;;;;12.99;100.00;101081.06;5065723;28;20426;-76
2023/09/01 03:52:46;;;;;;;11.60;7.50;;;;;;;13.02;100.00;101078.34;5060602;28;20110;-76
2023/09/01 03:55:11;;;;;;;14.48;8.00;;;;;;;13.03;100.00;101087.06;5058687;28;20033;-76
2023/09/01 03:57:36;;;;;;;11.52;7.65;;;;;;;13.01;100.00;101088.84;5062922;28;20103;-76
2023/09/01 04:00:08;;;;;;;12.40;8.52;;;;;;;13.01;100.00;101074.00;5060304;28;20036;-76
2023/09/01 04:02:33;;;;;;;14.35;8.63;;;;;;;13.02;100.00;101075.75;5055527;28;20029;-76
2023/09/01 04:04:59;;;;;;;14.50;8.63;;;;;;;13.00;100.00;101076.69;5061937;28;20083;-76
2023/09/01 04:07:24;;;;;;;12.48;7.22;;;;;;;13.01;100.00;101075.75;5059773;28;20075;-76
2023/09/01 04:09:49;;;;;;;13.30;7.97;;;;;;;13.07;100.00;101086.06;5061422;28;20495;-76
2023/09/01 04:12:15;;;;;;;13.07;8.85;;;;;;;13.06;100.00;101085.19;5056755;28;20045;-76
2023/09/01 04:14:40;;;;;;;12.23;8.38;;;;;;;13.08;100.00;101080.78;5063273;28;20029;-76
2023/09/01 04:17:05;;;;;;;13.60;8.48;;;;;;;13.08;100.00;101074.72;5058462;28;20472;-76
2023/09/01 04:19:30;;;;;;;13.70;7.88;;;;;;;13.10;100.00;101075.50;5069560;28;20028;-76
2023/09/01 04:21:56;;;;;;;13.40;7.65;;;;;;;13.10;100.00;101078.97;5065199;28;20056;-76
2023/09/01 04:24:21;;;;;;;13.32;7.65;;;;;;;13.11;100.00;101079.81;5060907;28;20107;-76
2023/09/01 04:26:46;;;;;;;11.38;7.75;;;;;;;13.09;100.00;101073.78;5063029;28;20434;-76
2023/09/01 04:29:12;;;;;;;13.38;8.27;;;;;;;13.10;100.00;101065.88;5064177;28;20471;-76
2023/09/01 04:31:37;;;;;;;13.20;8.32;;;;;;;13.12;100.00;101076.31;5061407;28;20048;-75
2023/09/01 04:34:03;;;;;;;11.38;8.35;;;;;;;13.13;100.00;101062.31;5058872;28;20071;-76
2023/09/01 04:36:28;;;;;;;12.90;8.43;;;;;;;13.12;100.00;101053.63;5066315;28;20468;-76
2023/09/01 04:38:53;;;;;;;14.48;9.15;;;;;;;13.18;100.00;101064.78;5065775;28;20024;-76
2023/09/01 04:41:19;;;;;;;14.00;8.38;;;;;;;13.17;100.00;101063.06;5070413;28;20233;-76
2023/09/01 04:43:44;;;;;;;13.02;7.68;;;;;;;13.18;100.00;101057.81;5066231;28;20020;-76
2023/09/01 04:46:09;;;;;;;13.73;8.07;;;;;;;13.20;100.00;101068.22;5065637;28;20025;-76
2023/09/01 04:48:35;;;;;;;16.00;8.32;;;;;;;13.19;100.00;101069.13;5065897;28;20185;-76
2023/09/01 04:51:02;;;;;;;14.10;7.95;;;;;;;13.17;100.00;101063.94;5064967;28;20085;-76
2023/09/01 04:53:28;;;;;;;14.02;8.55;;;;;;;13.17;100.00;101073.56;5064147;28;20029;-76
2023/09/01 04:55:54;;;;;;;13.30;7.97;;;;;;;13.17;100.00;101084.03;5066642;28;20059;-76
2023/09/01 04:58:20;;;;;;;13.52;8.10;;;;;;;13.19;100.00;101098.78;5063553;28;20029;-76
2023/09/01 05:00:45;;;;;;;13.20;8.13;;;;;;;13.17;100.00;101079.63;5065412;28;20016;-76
2023/09/01 05:03:10;;;;;;;15.13;8.15;;;;;;;13.22;100.00;101076.91;5065363;28;20071;-76
2023/09/01 05:05:36;;;;;;;13.88;8.68;;;;;;;13.26;100.00;101068.06;5063009;28;20029;-76
2023/09/01 05:08:02;;;;;;;11.80;8.15;;;;;;;13.29;100.00;101073.22;5067809;28;20037;-76
2023/09/01 05:10:27;;;;;;;13.45;7.60;;;;;;;13.31;100.00;101063.56;5062594;28;20033;-76
2023/09/01 05:12:52;;;;;;;15.75;7.43;;;;;;;13.37;100.00;101076.44;5068420;28;20035;-76
2023/09/01 05:15:19;;;;;;;12.30;7.93;;;;;;;13.40;100.00;101075.50;5057650;28;20027;-76
2023/09/01 05:17:44;;;;;;;15.18;7.85;;;;;;;13.42;100.00;101081.53;5062881;28;20021;-76
2023/09/01 05:20:10;;;;;;;14.80;8.68;;;;;;;13.44;100.00;101077.97;5068981;28;20380;-76
2023/09/01 05:22:35;;;;;;;14.50;8.70;;;;;;;13.48;100.00;101076.97;5062107;28;20067;-76
2023/09/01 05:25:02;;;;;;;11.60;7.57;;;;;;;13.51;100.00;101078.63;5070264;28;20020;-76
2023/09/01 05:27:28;;;;;;;12.35;7.57;;;;;;;13.54;100.00;101074.16;5056705;28;20353;-76
2023/09/01 05:29:53;;;;;;;13.65;8.13;;;;;;;13.60;100.00;101094.03;5070006;28;20046;-76
2023/09/01 05:32:20;;;;;;;11.90;7.63;;;;;;;13.59;100.00;101092.34;5063986;28;20032;-76
2023/09/01 05:34:45;;;;;;;18.02;8.45;;;;;;;13.62;100.00;101084.38;5068280;28;20371;-76
2023/09/01 05:37:14;;;;;;;14.15;8.27;;;;;;;13.67;100.00;101084.22;5063851;28;20107;-76
2023/09/01 05:39:41;;;;;;;15.45;8.18;;;;;;;13.66;100.00;101088.59;5067278;28;20059;-76
2023/09/01 05:42:10;;;;;;;15.20;7.97;;;;;;;13.69;100.00;101087.66;5056676;28;20499;-76
2023/09/01 05:44:37;;;;;;;12.63;8.40;;;;;;;13.74;100.00;101091.00;5067718;28;20047;-76
2023/09/01 05:47:06;;;;;;;14.38;8.73;;;;;;;13.76;100.00;101089.16;5065513;28;20044;-76
2023/09/01 05:49:32;;;;;;;16.95;8.95;;;;;;;13.80;100.00;101091.66;5061806;28;20036;-76
2023/09/01 05:51:58;;;;;;;13.80;8.85;;;;;;;13.82;100.00;101084.56;5065489;28;20029;-76
2023/09/01 05:54:24;;;;;;;18.52;8.77;;;;;;;13.85;100.00;101078.38;5063961;28;20376;-76
2023/09/01 05:56:49;;;;;;;14.52;9.40;;;;;;;13.84;100.00;101065.34;5062791;28;20035;-76
2023/09/01 05:59:14;;;;;;;12.90;8.77;;;;;;;13.95;100.00;101082.41;5065506;28;20035;-76
2023/09/01 06:01:41;;;;;;;18.40;9.82;;;;;;;14.00;100.00;101075.25;5062051;28;20102;-76
2023/09/01 06:04:06;;;;;;;14.95;9.25;;;;;;;14.05;100.00;101078.56;5064967;28;20052;-76
2023/09/01 06:06:32;;;;;;;13.73;9.20;;;;;;;14.13;100.00;101074.84;5063004;28;20047;-76
2023/09/01 06:09:05;;;;;;;17.08;9.60;;;;;;;14.17;100.00;101090.41;5064015;28;20029;-76
2023/09/01 06:11:31;;;;;;;15.30;9.10;;;;;;;14.16;100.00;101083.47;5063693;28;20387;-76
2023/09/01 06:13:57;;;;;;;17.85;9.98;;;;;;;14.15;100.00;101080.88;5064382;28;20701;-76
2023/09/01 06:16:23;;;;;;;15.52;10.20;;;;;;;14.14;100.00;101073.94;5063796;28;20068;-76
2023/09/01 06:18:48;;;;;;;15.38;10.05;;;;;;;14.12;100.00;101076.59;5061197;28;20111;-76
2023/09/01 06:21:17;;;;;;;15.68;9.52;;;;;;;14.15;100.00;101086.13;5064730;28;20032;-76
2023/09/01 06:23:44;;;;;;;18.10;10.40;;;;;;;14.14;100.00;101087.88;5069935;28;20025;-76
2023/09/01 06:26:14;;;;;;;15.95;10.77;;;;;;;14.17;100.00;101085.16;5051956;28;20070;-76
2023/09/01 06:28:40;;;;;;;17.15;10.40;;;;;;;14.19;100.00;101093.84;5061716;28;20024;-76
2023/09/01 06:31:05;;;;;;;20.00;10.85;;;;;;;14.23;100.00;101097.22;5057701;28;20033;-76
2023/09/01 06:33:31;;;;;;;19.27;10.45;;;;;;;14.25;100.00;101096.22;5055862;28;20073;-76
2023/09/01 06:35:56;;;;;;;17.92;10.80;;;;;;;14.21;100.00;101086.75;5057814;28;20029;-76
2023/09/01 06:38:21;;;;;;;16.70;11.30;;;;;;;14.29;100.00;101097.84;5063286;28;20029;-76
2023/09/01 06:40:47;;;;;;;15.60;10.27;;;;;;;14.34;100.00;101099.47;5065817;28;20020;-76
2023/09/01 06:43:12;;;;;;;14.32;10.85;;;;;;;14.38;100.00;101101.91;5055561;28;20100;-75
2023/09/01 06:45:37;;;;;;;15.23;10.85;;;;;;;14.38;100.00;101099.28;5059133;28;20040;-75
2023/09/01 06:48:03;;;;;;;19.27;11.30;;;;;;;14.41;100.00;101101.81;5062073;28;20033;-76
2023/09/01 06:50:28;;;;;;;16.63;11.32;;;;;;;14.40;100.00;101104.50;5069120;28;20483;-76
2023/09/01 06:52:53;;;;;;;23.35;11.80;;;;;;;14.38;100.00;101101.06;5054451;28;20020;-76
2023/09/01 06:55:19;;;;;;;18.63;11.43;;;;;;;14.36;100.00;101100.28;5051455;28;20044;-76
2023/09/01 06:57:44;;;;;;;17.70;11.95;;;;;;;14.34;100.00;101099.47;5065757;28;20020;-76
2023/09/01 07:00:10;;;;;;;20.65;12.23;;;;;;;14.30;100.00;101103.97;5059402;28;20033;-76
2023/09/01 07:02:36;;;;;;;20.52;11.68;;;;;;;14.27;100.00;101096.19;5066135;28;20020;-77
2023/09/01 07:05:02;;;;;;;22.90;12.18;;;;;;;14.27;100.00;101096.19;5057536;28;20175;-77
2023/09/01 07:07:28;;;;;;;20.30;12.80;;;;;;;14.25;100.00;101088.38;5060596;28;20476;-77
2023/09/01 07:09:53;;;;;;;22.17;12.82;;;;;;;14.21;100.00;101084.16;5050988;28;20045;-77
2023/09/01 07:12:18;;;;;;;19.52;12.77;;;;;;;14.25;100.00;101083.13;5058477;28;20425;-78
2023/09/01 07:14:44;;;;;;;22.48;14.00;;;;;;;14.24;100.00;101077.94;5051580;28;20111;-78
2023/09/01 07:17:11;;;;;;;20.40;14.00;;;;;;;14.22;100.00;101078.00;5052770;28;20109;-78
2023/09/01 07:19:37;;;;;;;20.75;13.35;;;;;;;14.17;100.00;101076.44;5059878;28;20143;-78
2023/09/01 07:22:03;;;;;;;21.85;14.32;;;;;;;14.18;100.00;101080.78;5053324;28;20028;-78
2023/09/01 07:24:28;;;;;;;24.90;14.20;;;;;;;14.17;100.00;101076.44;5062208;28;20021;-79
2023/09/01 07:26:54;;;;;;;20.50;13.00;;;;;;;14.17;100.00;101079.91;5061798;28;20032;-79
2023/09/01 07:29:19;;;;;;;23.80;15.27;;;;;;;14.18;100.00;101086.88;5055305;28;20048;-79
2023/09/01 07:31:44;;;;;;;22.45;15.20;;;;;;;14.18;100.00;101079.00;5056478;28;20622;-79
2023/09/01 07:34:10;;;;;;;20.98;14.55;;;;;;;14.17;100.00;101077.28;5063565;28;20111;-79
2023/09/01 07:36:35;;;;;;;24.08;14.98;;;;;;;14.14;100.00;101069.53;5056541;28;20025;-79
2023/09/01 07:39:00;;;;;;;21.23;14.85;;;;;;;14.17;100.00;101079.91;5062261;28;20028;-80
2023/09/01 07:41:25;;;;;;;20.38;14.65;;;;;;;14.18;100.00;101071.13;5053682;28;20031;-81
2023/09/01 07:43:51;;;;;;;24.33;15.20;;;;;;;14.21;100.00;101076.28;5058482;28;20103;-80
2023/09/01 07:46:16;;;;;;;23.65;16.35;;;;;;;14.25;100.00;101077.03;5057654;28;20104;-80
2023/09/01 07:48:41;;;;;;;22.55;15.95;;;;;;;14.29;100.00;101076.03;5051851;28;20128;-80
2023/09/01 07:51:07;;;;;;;23.35;16.38;;;;;;;14.27;100.00;101081.31;5060870;28;20062;-79
2023/09/01 07:53:32;;;;;;;22.58;15.85;;;;;;;14.26;100.00;101079.59;5056429;28;20408;-79
2023/09/01 07:55:58;;;;;;;24.25;16.17;;;;;;;14.26;100.00;101081.38;5066735;28;20384;-79
2023/09/01 07:58:23;;;;;;;27.08;16.52;;;;;;;14.25;100.00;101083.13;5058469;28;20025;-79
2023/09/01 08:00:49;;;;;;;26.13;16.85;;;;;;;14.23;100.00;101081.47;5061650;28;20387;-79
2023/09/01 08:03:15;;;;;;;24.13;16.27;;;;;;;14.31;100.00;101082.06;5053547;28;20029;-78
2023/09/01 08:05:40;;;;;;;23.52;16.73;;;;;;;14.34;100.00;101081.94;5055959;28;20017;-79
2023/09/01 08:08:06;;;;;;;27.38;16.90;;;;;;;14.37;100.00;101092.34;5062601;28;20483;-79
2023/09/01 08:10:32;;;;;;;26.85;18.02;;;;;;;14.36;100.00;101081.91;5052596;28;20062;-78
2023/09/01 08:12:57;;;;;;;26.85;18.42;;;;;;;14.40;100.00;101094.84;5055334;28;20084;-79
2023/09/01 08:15:22;;;;;;;26.85;16.70;;;;;;;14.39;100.00;101092.31;5056365;28;20025;-78
2023/09/01 08:17:50;;;;;;;23.90;17.25;;;;;;;14.41;100.00;101095.69;5055338;28;20531;-78
2023/09/01 08:20:17;;;;;;;23.67;17.20;;;;;;;14.44;100.00;101101.69;5063356;28;20107;-78
2023/09/01 08:22:42;;;;;;;24.30;16.30;;;;;;;14.46;100.00;101101.66;5055554;28;20044;-78
2023/09/01 08:25:09;;;;;;;24.40;17.20;;;;;;;14.46;100.00;101110.38;5068003;28;20028;-77
2023/09/01 08:27:34;;;;;;;26.55;17.52;;;;;;;14.43;100.00;101107.00;5060904;28;20055;-79
2023/09/01 08:30:00;;;;;;;23.23;17.10;;;;;;;14.48;100.00;101112.94;5060504;28;20068;-77
2023/09/01 08:32:25;;;;;;;25.67;16.77;;;;;;;14.43;100.00;101107.88;5055524;28;20534;-78
2023/09/01 08:34:50;;;;;;;23.83;16.90;;;;;;;14.47;100.00;101124.34;5059862;28;20027;-78
2023/09/01 08:37:17;;;;;;;21.58;16.35;;;;;;;14.47;100.00;101111.22;5056167;28;20064;-78
2023/09/01 08:39:42;;;;;;;24.90;17.98;;;;;;;14.48;100.00;101115.56;5058493;28;20476;-78
2023/09/01 08:42:09;;;;;;;22.45;17.23;;;;;;;14.51;100.00;101123.34;5057480;28;20035;-78
2023/09/01 08:44:39;;;;;;;24.80;16.00;;;;;;;14.52;100.00;101127.72;5064989;28;20031;-78
2023/09/01 08:47:04;;;;;;;22.77;17.45;;;;;;;14.54;100.00;101125.88;5065259;28;20025;-79
2023/09/01 08:49:29;;;;;;;20.90;15.82;;;;;;;14.54;100.00;101131.13;5058646;28;20044;-78
2023/09/01 08:51:57;;;;;;;22.45;15.85;;;;;;;14.55;100.00;101127.59;5056662;28;20036;-78
2023/09/01 08:54:23;;;;;;;24.08;16.08;;;;;;;14.58;100.00;101140.59;5053288;28;20107;-78
2023/09/01 08:56:49;;;;;;;23.13;17.00;;;;;;;14.60;100.00;101135.31;5062941;28;20032;-78
2023/09/01 08:59:14;;;;;;;25.17;16.98;;;;;;;14.62;100.00;101133.50;5061999;28;20421;-78
2023/09/01 09:01:40;;;;;;;23.88;16.98;;;;;;;14.63;100.00;101133.41;5055551;28;20130;-77
2023/09/01 09:04:06;;;;;;;25.50;17.58;;;;;;;14.65;100.00;101136.84;5058000;28;20051;-78
2023/09/01 09:06:33;;;;;;;25.58;17.00;;;;;;;14.66;100.00;101142.97;5053927;28;20120;-78
2023/09/01 09:09:14;;;;;;;25.92;16.95;;;;;;;14.64;100.00;101135.13;5063633;28;20025;-78
2023/09/01 09:11:54;;;;;;;23.13;16.85;;;;;;;14.64;100.00;101142.16;5056157;28;20036;-78
2023/09/01 09:14:19;;;;;;;20.83;15.65;;;;;;;14.66;100.00;101137.72;5060845;28;20070;-77
2023/09/01 09:16:52;;;;;;;21.80;15.65;;;;;;;14.65;100.00;101138.59;5060498;28;20025;-76
2023/09/01 09:19:19;;;;;;;20.02;13.50;;;;;;;14.61;100.00;101148.34;5052121;28;20040;-78
2023/09/01 09:21:44;;;;;;;19.48;13.93;;;;;;;14.60;100.00;101140.53;5066944;28;20476;-80
2023/09/01 09:24:10;;;;;;;21.33;13.55;;;;;;;14.57;100.00;101141.50;5064585;28;20031;-78
2023/09/01 09:26:35;;;;;;;16.60;12.88;;;;;;;14.56;100.00;101139.81;5059866;28;20029;-77
2023/09/01 09:29:11;;;;;;;16.98;13.05;;;;;;;14.58;100.00;101147.59;5055865;28;20483;-78
2023/09/01 09:31:40;;;;;;;22.45;13.65;;;;;;;14.58;100.00;101153.69;5055398;28;20036;-77
2023/09/01 09:34:18;;;;;;;19.17;14.38;;;;;;;14.63;100.00;101154.41;5061203;28;20025;-77
2023/09/01 09:36:45;;;;;;;19.35;13.80;;;;;;;14.67;100.00;101153.38;5065232;28;20017;-77
2023/09/01 09:39:21;;;;;;;24.00;14.73;;;;;;;14.74;100.00;101154.88;5064307;28;20027;-78
2023/09/01 09:41:46;;;;;;;20.95;14.88;;;;;;;14.82;100.00;101156.41;5062499;28;20392;-78
2023/09/01 09:44:13;;;;;;;19.77;14.00;;;;;;;14.85;100.00;101151.88;5060765;28;20020;-78
2023/09/01 09:46:44;;;;;;;19.38;13.98;;;;;;;14.87;100.00;101146.56;5062626;28;20020;-77
2023/09/01 09:49:11;;;;;;;17.35;12.88;;;;;;;14.93;100.00;101148.97;5057222;28;20041;-77
2023/09/01 09:51:38;;;;;;;16.77;11.77;;;;;;;14.91;100.00;101150.78;5045639;28;20028;-78
2023/09/01 09:54:05;;;;;;;15.65;11.05;;;;;;;14.95;100.00;101161.13;5056343;28;20049;-78
2023/09/01 09:56:33;;;;;;;17.45;11.68;;;;;;;14.93;100.00;101148.97;5060282;28;20029;-77
2023/09/01 09:59:04;;;;;;;16.92;11.63;;;;;;;15.02;100.00;101151.25;5056945;28;20024;-78
2023/09/01 10:01:38;;;;;;;16.77;11.27;;;;;;;15.07;100.00;101157.19;5058824;28;20037;-77
2023/09/01 10:04:07;;;;;;;17.65;10.82;;;;;;;15.13;100.00;101156.97;5057310;28;20472;-78
2023/09/01 10:06:36;;;;;;;13.45;10.55;;;;;;;15.18;100.00;101141.03;5053636;28;20032;-77
2023/09/01 10:09:06;;;;;;;13.15;9.98;;;;;;;15.23;100.00;101137.31;5057895;28;20057;-78
2023/09/01 10:11:31;;;;;;;13.52;10.15;;;;;;;15.18;100.00;101133.16;5052951;28;20033;-78
2023/09/01 10:13:57;;;;;;;13.02;10.13;;;;;;;15.19;100.00;101130.47;5059904;28;20031;-78
2023/09/01 10:16:23;;;;;;;12.75;9.95;;;;;;;15.20;100.00;101126.94;5055973;28;20029;-77
2023/09/01 10:18:50;;;;;;;11.05;9.40;;;;;;;15.20;100.00;101131.31;5054860;28;20396;-77
2023/09/01 10:21:16;;;;;;;11.02;9.18;;;;;;;15.17;100.00;101129.69;5060008;28;20029;-77
2023/09/01 10:23:43;;;;;;;14.40;9.43;;;;;;;15.19;100.00;101130.47;5057107;28;20033;-76
2023/09/01 10:26:24;;;;;;;10.45;8.68;;;;;;;15.24;100.00;101146.06;5052423;28;20020;-77
2023/09/01 10:29:00;;;;;;;12.57;8.75;;;;;;;15.27;100.00;101142.44;5052365;28;20028;-77
2023/09/01 10:31:27;;;;;;;13.57;8.85;;;;;;;15.30;100.00;101131.81;5059539;28;20017;-78
2023/09/01 10:34:15;;;;;;;13.00;8.93;;;;;;;15.45;100.00;101147.00;5056872;28;20029;-77
2023/09/01 10:36:42;;;;;;;10.82;9.40;;;;;;;15.45;100.00;101144.38;5060036;28;20028;-77
2023/09/01 10:39:16;;;;;;;10.48;8.63;;;;;;;15.56;100.00;101159.72;5059222;28;20086;-77
2023/09/01 10:42:07;;;;;;;16.30;10.40;;;;;;;15.75;100.00;101149.38;5053114;28;20417;-77
2023/09/01 10:44:44;;;;;;;11.80;10.00;;;;;;;15.91;100.00;101151.31;5062135;28;20107;-77
2023/09/01 10:47:31;;;;;;;12.27;8.90;;;;;;;16.06;100.00;101149.84;5054421;28;20037;-78
2023/09/01 10:49:58;;;;;;;12.98;8.95;;;;;;;16.15;100.00;101154.72;5051900;28;20090;-77
2023/09/01 10:52:24;;;;;;;9.43;8.45;;;;;;;16.26;100.00;101148.16;5054572;28;20467;-77
2023/09/01 10:54:59;;;;;;;9.77;8.40;;;;;;;16.37;100.00;101157.28;5055629;28;20120;-77
2023/09/01 10:57:43;;;;;;;9.98;8.15;;;;;;;16.46;100.00;101158.69;5059650;28;20032;-77
2023/09/01 11:00:26;;;;;;;8.88;7.97;;;;;;;16.51;100.00;101161.97;5054261;28;20040;-77
2023/09/01 11:02:51;;;;;;;7.53;6.60;;;;;;;16.50;100.00;101162.03;5059192;28;20037;-78
2023/09/01 11:05:39;;;;;;;7.93;6.72;;;;;;;16.55;100.00;101157.44;5059486;28;20033;-77
2023/09/01 11:08:15;;;;;;;8.10;7.22;;;;;;;16.63;100.00;101165.84;5054076;28;20143;-77